sensor_id;sensor_type;location;lat;lon;timestamp;P1;durP1;ratioP1;P2;durP2;ratioP2
21661;SDS011;10992;48.170;8.596;2022-10-16T00:01:11;2.88;;;1.55;;
21661;SDS011;10992;48.170;8.596;2022-10-16T00:03:39;1.95;;;1.58;;
21661;SDS011;10992;48.170;8.596;2022-10-16T00:06:08;2.92;;;2.50;;
21661;SDS011;10992;48.170;8.596;2022-10-16T00:08:36;5.30;;;1.77;;
21661;SDS011;10992;48.170;8.596;2022-10-16T00:11:08;2.10;;;1.67;;
21661;SDS011;10992;48.170;8.596;2022-10-16T00:13:37;2.63;;;1.85;;
21661;SDS011;10992;48.170;8.596;2022-10-16T00:16:06;2.20;;;2.00;;
21661;SDS011;10992;48.170;8.596;2022-10-16T00:18:34;7.35;;;2.20;;
21661;SDS011;10992;48.170;8.596;2022-10-16T00:21:11;3.88;;;1.98;;
21661;SDS011;10992;48.170;8.596;2022-10-16T00:23:40;5.53;;;2.05;;
21661;SDS011;10992;48.170;8.596;2022-10-16T00:26:09;2.60;;;2.10;;
21661;SDS011;10992;48.170;8.596;2022-10-16T00:28:41;2.72;;;2.00;;
21661;SDS011;10992;48.170;8.596;2022-10-16T00:31:11;3.08;;;1.63;;
21661;SDS011;10992;48.170;8.596;2022-10-16T00:33:39;8.13;;;1.85;;
21661;SDS011;10992;48.170;8.596;2022-10-16T00:36:07;2.05;;;1.70;;
21661;SDS011;10992;48.170;8.596;2022-10-16T00:38:36;2.17;;;1.55;;
21661;SDS011;10992;48.170;8.596;2022-10-16T00:41:04;3.80;;;1.70;;
21661;SDS011;10992;48.170;8.596;2022-10-16T00:45:59;6.55;;;1.73;;
21661;SDS011;10992;48.170;8.596;2022-10-16T00:48:28;3.35;;;2.00;;
21661;SDS011;10992;48.170;8.596;2022-10-16T00:50:56;2.60;;;1.60;;
21661;SDS011;10992;48.170;8.596;2022-10-16T00:53:24;2.78;;;1.80;;
21661;SDS011;10992;48.170;8.596;2022-10-16T00:55:52;2.47;;;1.63;;
21661;SDS011;10992;48.170;8.596;2022-10-16T00:58:19;2.63;;;1.70;;
21661;SDS011;10992;48.170;8.596;2022-10-16T01:00:47;5.22;;;1.83;;
21661;SDS011;10992;48.170;8.596;2022-10-16T01:06:13;2.90;;;1.52;;
21661;SDS011;10992;48.170;8.596;2022-10-16T01:09:02;4.25;;;1.73;;
21661;SDS011;10992;48.170;8.596;2022-10-16T01:14:16;4.28;;;1.73;;
21661;SDS011;10992;48.170;8.596;2022-10-16T01:16:55;5.63;;;1.60;;
21661;SDS011;10992;48.170;8.596;2022-10-16T01:22:09;2.53;;;1.40;;
21661;SDS011;10992;48.170;8.596;2022-10-16T01:24:48;2.60;;;1.50;;
21661;SDS011;10992;48.170;8.596;2022-10-16T01:27:18;3.63;;;1.80;;
21661;SDS011;10992;48.170;8.596;2022-10-16T01:32:36;4.22;;;1.73;;
21661;SDS011;10992;48.170;8.596;2022-10-16T01:35:11;4.15;;;2.20;;
21661;SDS011;10992;48.170;8.596;2022-10-16T01:40:37;2.03;;;1.70;;
21661;SDS011;10992;48.170;8.596;2022-10-16T01:43:12;2.05;;;1.77;;
21661;SDS011;10992;48.170;8.596;2022-10-16T01:45:45;2.10;;;1.63;;
21661;SDS011;10992;48.170;8.596;2022-10-16T01:48:13;2.10;;;1.65;;
21661;SDS011;10992;48.170;8.596;2022-10-16T01:50:44;3.70;;;1.70;;
21661;SDS011;10992;48.170;8.596;2022-10-16T01:53:19;4.05;;;2.22;;
21661;SDS011;10992;48.170;8.596;2022-10-16T01:55:48;3.50;;;1.92;;
21661;SDS011;10992;48.170;8.596;2022-10-16T01:58:16;2.08;;;1.75;;
21661;SDS011;10992;48.170;8.596;2022-10-16T02:00:44;2.38;;;2.00;;
21661;SDS011;10992;48.170;8.596;2022-10-16T02:03:14;3.00;;;1.95;;
21661;SDS011;10992;48.170;8.596;2022-10-16T02:05:51;2.97;;;1.80;;
21661;SDS011;10992;48.170;8.596;2022-10-16T02:08:22;4.00;;;1.80;;
21661;SDS011;10992;48.170;8.596;2022-10-16T02:10:50;3.85;;;1.30;;
21661;SDS011;10992;48.170;8.596;2022-10-16T02:13:24;2.95;;;1.88;;
21661;SDS011;10992;48.170;8.596;2022-10-16T02:15:58;3.25;;;1.80;;
21661;SDS011;10992;48.170;8.596;2022-10-16T02:18:26;2.95;;;1.63;;
21661;SDS011;10992;48.170;8.596;2022-10-16T02:21:16;3.53;;;2.00;;
21661;SDS011;10992;48.170;8.596;2022-10-16T02:26:49;2.55;;;1.67;;
21661;SDS011;10992;48.170;8.596;2022-10-16T02:29:25;3.45;;;1.67;;
21661;SDS011;10992;48.170;8.596;2022-10-16T02:31:54;1.70;;;1.40;;
21661;SDS011;10992;48.170;8.596;2022-10-16T02:34:26;2.20;;;1.25;;
21661;SDS011;10992;48.170;8.596;2022-10-16T02:36:56;2.45;;;1.30;;
21661;SDS011;10992;48.170;8.596;2022-10-16T02:39:25;3.42;;;1.95;;
21661;SDS011;10992;48.170;8.596;2022-10-16T02:41:55;1.63;;;1.48;;
21661;SDS011;10992;48.170;8.596;2022-10-16T02:44:21;3.30;;;1.73;;
21661;SDS011;10992;48.170;8.596;2022-10-16T02:46:48;4.40;;;1.63;;
21661;SDS011;10992;48.170;8.596;2022-10-16T02:49:15;4.63;;;1.70;;
21661;SDS011;10992;48.170;8.596;2022-10-16T02:51:42;3.08;;;1.75;;
21661;SDS011;10992;48.170;8.596;2022-10-16T02:54:09;2.38;;;1.77;;
21661;SDS011;10992;48.170;8.596;2022-10-16T02:56:36;4.47;;;2.00;;
21661;SDS011;10992;48.170;8.596;2022-10-16T02:59:03;3.28;;;1.48;;
21661;SDS011;10992;48.170;8.596;2022-10-16T03:01:30;4.50;;;1.42;;
21661;SDS011;10992;48.170;8.596;2022-10-16T03:03:57;2.53;;;1.70;;
21661;SDS011;10992;48.170;8.596;2022-10-16T03:06:24;1.92;;;1.50;;
21661;SDS011;10992;48.170;8.596;2022-10-16T03:08:51;4.78;;;1.90;;
21661;SDS011;10992;48.170;8.596;2022-10-16T03:11:18;2.42;;;1.40;;
21661;SDS011;10992;48.170;8.596;2022-10-16T03:13:45;7.00;;;1.67;;
21661;SDS011;10992;48.170;8.596;2022-10-16T03:16:12;2.03;;;1.60;;
21661;SDS011;10992;48.170;8.596;2022-10-16T03:18:39;5.10;;;1.83;;
21661;SDS011;10992;48.170;8.596;2022-10-16T03:21:06;2.22;;;1.60;;
21661;SDS011;10992;48.170;8.596;2022-10-16T03:23:33;2.88;;;1.92;;
21661;SDS011;10992;48.170;8.596;2022-10-16T03:25:59;4.20;;;2.10;;
21661;SDS011;10992;48.170;8.596;2022-10-16T03:28:26;2.45;;;1.80;;
21661;SDS011;10992;48.170;8.596;2022-10-16T03:30:53;2.58;;;1.90;;
21661;SDS011;10992;48.170;8.596;2022-10-16T03:33:20;4.75;;;2.05;;
21661;SDS011;10992;48.170;8.596;2022-10-16T03:35:50;5.85;;;2.30;;
21661;SDS011;10992;48.170;8.596;2022-10-16T03:38:19;4.78;;;2.47;;
21661;SDS011;10992;48.170;8.596;2022-10-16T03:40:47;2.95;;;2.13;;
21661;SDS011;10992;48.170;8.596;2022-10-16T03:43:14;3.17;;;2.25;;
21661;SDS011;10992;48.170;8.596;2022-10-16T03:45:41;3.83;;;2.35;;
21661;SDS011;10992;48.170;8.596;2022-10-16T03:48:08;4.13;;;2.00;;
21661;SDS011;10992;48.170;8.596;2022-10-16T03:50:37;3.17;;;2.35;;
21661;SDS011;10992;48.170;8.596;2022-10-16T03:53:04;4.85;;;2.45;;
21661;SDS011;10992;48.170;8.596;2022-10-16T03:55:31;3.90;;;2.15;;
21661;SDS011;10992;48.170;8.596;2022-10-16T03:57:57;4.25;;;1.92;;
21661;SDS011;10992;48.170;8.596;2022-10-16T04:00:24;4.10;;;2.40;;
21661;SDS011;10992;48.170;8.596;2022-10-16T04:02:51;2.80;;;1.92;;
21661;SDS011;10992;48.170;8.596;2022-10-16T04:05:18;4.50;;;2.30;;
21661;SDS011;10992;48.170;8.596;2022-10-16T04:07:45;3.78;;;2.17;;
21661;SDS011;10992;48.170;8.596;2022-10-16T04:10:12;6.22;;;1.95;;
21661;SDS011;10992;48.170;8.596;2022-10-16T04:12:39;2.95;;;2.00;;
21661;SDS011;10992;48.170;8.596;2022-10-16T04:15:06;4.20;;;1.90;;
21661;SDS011;10992;48.170;8.596;2022-10-16T04:17:33;5.03;;;1.80;;
21661;SDS011;10992;48.170;8.596;2022-10-16T04:19:59;2.25;;;1.48;;
21661;SDS011;10992;48.170;8.596;2022-10-16T04:22:26;6.93;;;2.30;;
21661;SDS011;10992;48.170;8.596;2022-10-16T04:24:58;3.08;;;1.88;;
21661;SDS011;10992;48.170;8.596;2022-10-16T04:27:25;2.90;;;2.20;;
21661;SDS011;10992;48.170;8.596;2022-10-16T04:29:52;3.22;;;1.85;;
21661;SDS011;10992;48.170;8.596;2022-10-16T04:32:19;6.80;;;2.40;;
21661;SDS011;10992;48.170;8.596;2022-10-16T04:34:46;2.80;;;1.73;;
21661;SDS011;10992;48.170;8.596;2022-10-16T04:37:13;3.47;;;2.05;;
21661;SDS011;10992;48.170;8.596;2022-10-16T04:39:40;3.05;;;2.00;;
21661;SDS011;10992;48.170;8.596;2022-10-16T04:42:07;2.40;;;1.60;;
21661;SDS011;10992;48.170;8.596;2022-10-16T04:44:34;3.85;;;1.95;;
21661;SDS011;10992;48.170;8.596;2022-10-16T04:47:00;4.57;;;2.28;;
21661;SDS011;10992;48.170;8.596;2022-10-16T04:49:27;3.42;;;1.80;;
21661;SDS011;10992;48.170;8.596;2022-10-16T04:51:54;3.85;;;1.67;;
21661;SDS011;10992;48.170;8.596;2022-10-16T04:54:21;5.15;;;2.00;;
21661;SDS011;10992;48.170;8.596;2022-10-16T04:56:48;2.75;;;1.90;;
21661;SDS011;10992;48.170;8.596;2022-10-16T04:59:18;3.10;;;1.60;;
21661;SDS011;10992;48.170;8.596;2022-10-16T05:01:46;3.38;;;1.58;;
21661;SDS011;10992;48.170;8.596;2022-10-16T05:04:13;2.83;;;1.83;;
21661;SDS011;10992;48.170;8.596;2022-10-16T05:06:41;4.13;;;1.90;;
21661;SDS011;10992;48.170;8.596;2022-10-16T05:09:09;2.63;;;1.70;;
21661;SDS011;10992;48.170;8.596;2022-10-16T05:11:36;4.57;;;2.00;;
21661;SDS011;10992;48.170;8.596;2022-10-16T05:14:03;5.82;;;1.58;;
21661;SDS011;10992;48.170;8.596;2022-10-16T05:16:30;4.78;;;1.95;;
21661;SDS011;10992;48.170;8.596;2022-10-16T05:18:57;4.18;;;1.75;;
21661;SDS011;10992;48.170;8.596;2022-10-16T05:21:44;2.63;;;1.63;;
21661;SDS011;10992;48.170;8.596;2022-10-16T05:24:11;3.47;;;1.65;;
21661;SDS011;10992;48.170;8.596;2022-10-16T05:26:38;3.95;;;1.60;;
21661;SDS011;10992;48.170;8.596;2022-10-16T05:29:05;1.92;;;1.52;;
21661;SDS011;10992;48.170;8.596;2022-10-16T05:31:32;2.28;;;1.70;;
21661;SDS011;10992;48.170;8.596;2022-10-16T05:33:59;2.00;;;1.65;;
21661;SDS011;10992;48.170;8.596;2022-10-16T05:36:26;2.95;;;1.60;;
21661;SDS011;10992;48.170;8.596;2022-10-16T05:38:53;1.98;;;1.40;;
21661;SDS011;10992;48.170;8.596;2022-10-16T05:41:20;1.95;;;1.33;;
21661;SDS011;10992;48.170;8.596;2022-10-16T05:43:49;1.92;;;1.67;;
21661;SDS011;10992;48.170;8.596;2022-10-16T05:46:16;2.58;;;1.58;;
21661;SDS011;10992;48.170;8.596;2022-10-16T05:48:46;3.60;;;1.90;;
21661;SDS011;10992;48.170;8.596;2022-10-16T05:51:14;2.58;;;1.55;;
21661;SDS011;10992;48.170;8.596;2022-10-16T05:53:41;1.70;;;1.27;;
21661;SDS011;10992;48.170;8.596;2022-10-16T05:56:10;2.50;;;1.50;;
21661;SDS011;10992;48.170;8.596;2022-10-16T05:58:38;2.53;;;1.80;;
21661;SDS011;10992;48.170;8.596;2022-10-16T06:01:12;2.58;;;1.52;;
21661;SDS011;10992;48.170;8.596;2022-10-16T06:03:43;4.57;;;3.63;;
21661;SDS011;10992;48.170;8.596;2022-10-16T06:06:12;3.30;;;2.00;;
21661;SDS011;10992;48.170;8.596;2022-10-16T06:08:43;2.95;;;1.75;;
21661;SDS011;10992;48.170;8.596;2022-10-16T06:11:21;1.48;;;1.30;;
21661;SDS011;10992;48.170;8.596;2022-10-16T06:13:52;6.22;;;1.65;;
21661;SDS011;10992;48.170;8.596;2022-10-16T06:16:23;2.72;;;1.58;;
21661;SDS011;10992;48.170;8.596;2022-10-16T06:18:54;4.05;;;1.75;;
21661;SDS011;10992;48.170;8.596;2022-10-16T06:21:25;2.17;;;1.52;;
21661;SDS011;10992;48.170;8.596;2022-10-16T06:23:55;3.20;;;1.33;;
21661;SDS011;10992;48.170;8.596;2022-10-16T06:26:24;3.17;;;1.45;;
21661;SDS011;10992;48.170;8.596;2022-10-16T06:28:56;1.95;;;1.40;;
21661;SDS011;10992;48.170;8.596;2022-10-16T06:31:25;3.47;;;1.73;;
21661;SDS011;10992;48.170;8.596;2022-10-16T06:33:55;3.33;;;1.42;;
21661;SDS011;10992;48.170;8.596;2022-10-16T06:36:22;2.65;;;1.65;;
21661;SDS011;10992;48.170;8.596;2022-10-16T06:38:51;4.75;;;1.30;;
21661;SDS011;10992;48.170;8.596;2022-10-16T06:41:19;3.30;;;1.70;;
21661;SDS011;10992;48.170;8.596;2022-10-16T06:43:47;3.83;;;1.40;;
21661;SDS011;10992;48.170;8.596;2022-10-16T06:46:14;3.22;;;1.80;;
21661;SDS011;10992;48.170;8.596;2022-10-16T06:48:43;4.75;;;1.52;;
21661;SDS011;10992;48.170;8.596;2022-10-16T06:51:17;3.88;;;1.30;;
21661;SDS011;10992;48.170;8.596;2022-10-16T06:53:46;3.40;;;1.30;;
21661;SDS011;10992;48.170;8.596;2022-10-16T06:56:33;3.88;;;1.35;;
21661;SDS011;10992;48.170;8.596;2022-10-16T06:59:00;3.60;;;1.50;;
21661;SDS011;10992;48.170;8.596;2022-10-16T07:01:28;7.60;;;1.50;;
21661;SDS011;10992;48.170;8.596;2022-10-16T07:03:56;2.50;;;1.10;;
21661;SDS011;10992;48.170;8.596;2022-10-16T07:06:24;1.98;;;1.35;;
21661;SDS011;10992;48.170;8.596;2022-10-16T07:08:52;3.58;;;1.48;;
21661;SDS011;10992;48.170;8.596;2022-10-16T07:11:20;3.40;;;1.83;;
21661;SDS011;10992;48.170;8.596;2022-10-16T07:13:49;4.43;;;1.50;;
21661;SDS011;10992;48.170;8.596;2022-10-16T07:16:25;1.90;;;1.23;;
21661;SDS011;10992;48.170;8.596;2022-10-16T07:18:58;2.88;;;1.38;;
21661;SDS011;10992;48.170;8.596;2022-10-16T07:21:28;3.25;;;1.50;;
21661;SDS011;10992;48.170;8.596;2022-10-16T07:23:58;1.90;;;1.30;;
21661;SDS011;10992;48.170;8.596;2022-10-16T07:26:28;6.38;;;1.42;;
21661;SDS011;10992;48.170;8.596;2022-10-16T07:28:57;3.50;;;1.83;;
21661;SDS011;10992;48.170;8.596;2022-10-16T07:31:24;2.67;;;1.30;;
21661;SDS011;10992;48.170;8.596;2022-10-16T07:33:51;1.98;;;1.05;;
21661;SDS011;10992;48.170;8.596;2022-10-16T07:36:20;2.92;;;0.93;;
21661;SDS011;10992;48.170;8.596;2022-10-16T07:38:47;2.72;;;1.52;;
21661;SDS011;10992;48.170;8.596;2022-10-16T07:41:15;2.20;;;1.63;;
21661;SDS011;10992;48.170;8.596;2022-10-16T07:43:50;2.38;;;1.33;;
21661;SDS011;10992;48.170;8.596;2022-10-16T07:46:19;4.07;;;1.60;;
21661;SDS011;10992;48.170;8.596;2022-10-16T07:48:47;3.03;;;1.60;;
21661;SDS011;10992;48.170;8.596;2022-10-16T07:51:15;1.90;;;1.52;;
21661;SDS011;10992;48.170;8.596;2022-10-16T07:53:44;2.67;;;1.50;;
21661;SDS011;10992;48.170;8.596;2022-10-16T07:56:11;2.72;;;1.48;;
21661;SDS011;10992;48.170;8.596;2022-10-16T07:58:38;1.60;;;1.10;;
21661;SDS011;10992;48.170;8.596;2022-10-16T08:01:07;3.03;;;1.50;;
21661;SDS011;10992;48.170;8.596;2022-10-16T08:03:35;2.88;;;1.13;;
21661;SDS011;10992;48.170;8.596;2022-10-16T08:06:02;3.60;;;1.80;;
21661;SDS011;10992;48.170;8.596;2022-10-16T08:08:30;6.28;;;1.40;;
21661;SDS011;10992;48.170;8.596;2022-10-16T08:10:57;1.77;;;1.30;;
21661;SDS011;10992;48.170;8.596;2022-10-16T08:13:25;2.00;;;1.40;;
21661;SDS011;10992;48.170;8.596;2022-10-16T08:15:53;4.28;;;1.00;;
21661;SDS011;10992;48.170;8.596;2022-10-16T08:18:20;2.97;;;1.40;;
21661;SDS011;10992;48.170;8.596;2022-10-16T08:20:47;2.10;;;1.20;;
21661;SDS011;10992;48.170;8.596;2022-10-16T08:23:14;3.13;;;1.20;;
21661;SDS011;10992;48.170;8.596;2022-10-16T08:25:41;2.67;;;1.17;;
21661;SDS011;10992;48.170;8.596;2022-10-16T08:28:09;4.88;;;1.27;;
21661;SDS011;10992;48.170;8.596;2022-10-16T08:30:37;2.45;;;1.20;;
21661;SDS011;10992;48.170;8.596;2022-10-16T08:33:04;2.97;;;1.30;;
21661;SDS011;10992;48.170;8.596;2022-10-16T08:35:32;2.55;;;1.58;;
21661;SDS011;10992;48.170;8.596;2022-10-16T08:37:59;4.43;;;1.13;;
21661;SDS011;10992;48.170;8.596;2022-10-16T08:40:29;5.18;;;1.23;;
21661;SDS011;10992;48.170;8.596;2022-10-16T08:45:33;5.05;;;1.10;;
21661;SDS011;10992;48.170;8.596;2022-10-16T08:48:36;2.70;;;1.33;;
21661;SDS011;10992;48.170;8.596;2022-10-16T08:51:07;3.75;;;1.30;;
21661;SDS011;10992;48.170;8.596;2022-10-16T08:53:43;2.78;;;1.10;;
21661;SDS011;10992;48.170;8.596;2022-10-16T08:56:14;1.77;;;1.13;;
21661;SDS011;10992;48.170;8.596;2022-10-16T08:58:43;2.45;;;0.98;;
21661;SDS011;10992;48.170;8.596;2022-10-16T09:01:18;1.48;;;0.90;;
21661;SDS011;10992;48.170;8.596;2022-10-16T09:03:56;2.35;;;1.10;;
21661;SDS011;10992;48.170;8.596;2022-10-16T09:09:31;2.95;;;1.00;;
21661;SDS011;10992;48.170;8.596;2022-10-16T09:12:31;2.05;;;1.02;;
21661;SDS011;10992;48.170;8.596;2022-10-16T09:20:18;2.85;;;1.20;;
21661;SDS011;10992;48.170;8.596;2022-10-16T09:23:34;1.95;;;1.30;;
21661;SDS011;10992;48.170;8.596;2022-10-16T09:25:45;2.83;;;1.10;;
21661;SDS011;10992;48.170;8.596;2022-10-16T09:28:17;2.95;;;1.30;;
21661;SDS011;10992;48.170;8.596;2022-10-16T09:30:44;2.60;;;1.25;;
21661;SDS011;10992;48.170;8.596;2022-10-16T09:33:14;3.35;;;1.30;;
21661;SDS011;10992;48.170;8.596;2022-10-16T09:35:44;2.90;;;1.10;;
21661;SDS011;10992;48.170;8.596;2022-10-16T09:40:52;8.35;;;1.67;;
21661;SDS011;10992;48.170;8.596;2022-10-16T09:43:41;1.90;;;1.20;;
21661;SDS011;10992;48.170;8.596;2022-10-16T09:49:01;2.85;;;1.10;;
21661;SDS011;10992;48.170;8.596;2022-10-16T09:51:31;1.30;;;1.00;;
21661;SDS011;10992;48.170;8.596;2022-10-16T09:56:36;2.63;;;1.20;;
21661;SDS011;10992;48.170;8.596;2022-10-16T09:59:12;4.68;;;1.40;;
21661;SDS011;10992;48.170;8.596;2022-10-16T10:01:46;4.45;;;1.20;;
21661;SDS011;10992;48.170;8.596;2022-10-16T10:04:22;2.30;;;1.15;;
21661;SDS011;10992;48.170;8.596;2022-10-16T10:06:53;3.67;;;1.20;;
21661;SDS011;10992;48.170;8.596;2022-10-16T10:09:22;5.05;;;1.05;;
21661;SDS011;10992;48.170;8.596;2022-10-16T10:12:04;1.90;;;1.00;;
21661;SDS011;10992;48.170;8.596;2022-10-16T10:19:41;1.80;;;1.02;;
21661;SDS011;10992;48.170;8.596;2022-10-16T10:31:41;3.47;;;1.10;;
21661;SDS011;10992;48.170;8.596;2022-10-16T10:36:39;2.58;;;1.00;;
21661;SDS011;10992;48.170;8.596;2022-10-16T10:39:15;3.17;;;1.00;;
21661;SDS011;10992;48.170;8.596;2022-10-16T10:45:07;1.42;;;0.90;;
21661;SDS011;10992;48.170;8.596;2022-10-16T10:50:28;2.78;;;1.05;;
21661;SDS011;10992;48.170;8.596;2022-10-16T10:53:38;1.75;;;0.95;;
21661;SDS011;10992;48.170;8.596;2022-10-16T10:56:24;1.10;;;0.93;;
21661;SDS011;10992;48.170;8.596;2022-10-16T10:59:21;1.17;;;0.77;;
21661;SDS011;10992;48.170;8.596;2022-10-16T11:02:15;2.45;;;1.10;;
21661;SDS011;10992;48.170;8.596;2022-10-16T11:07:27;5.00;;;1.00;;
21661;SDS011;10992;48.170;8.596;2022-10-16T11:10:02;2.50;;;0.98;;
21661;SDS011;10992;48.170;8.596;2022-10-16T11:12:36;2.05;;;1.23;;
21661;SDS011;10992;48.170;8.596;2022-10-16T11:15:21;1.65;;;0.90;;
21661;SDS011;10992;48.170;8.596;2022-10-16T11:18:15;3.13;;;1.00;;
21661;SDS011;10992;48.170;8.596;2022-10-16T11:20:54;3.50;;;0.90;;
21661;SDS011;10992;48.170;8.596;2022-10-16T11:23:31;1.70;;;1.08;;
21661;SDS011;10992;48.170;8.596;2022-10-16T11:26:13;1.73;;;0.93;;
21661;SDS011;10992;48.170;8.596;2022-10-16T11:28:53;3.45;;;1.40;;
21661;SDS011;10992;48.170;8.596;2022-10-16T11:31:29;3.70;;;1.30;;
21661;SDS011;10992;48.170;8.596;2022-10-16T11:36:58;1.80;;;1.00;;
21661;SDS011;10992;48.170;8.596;2022-10-16T11:39:30;1.48;;;0.80;;
21661;SDS011;10992;48.170;8.596;2022-10-16T11:42:01;2.88;;;1.08;;
21661;SDS011;10992;48.170;8.596;2022-10-16T11:53:07;2.97;;;0.75;;
21661;SDS011;10992;48.170;8.596;2022-10-16T11:55:53;1.92;;;0.85;;
21661;SDS011;10992;48.170;8.596;2022-10-16T12:03:40;1.95;;;0.90;;
21661;SDS011;10992;48.170;8.596;2022-10-16T12:09:08;3.28;;;0.80;;
21661;SDS011;10992;48.170;8.596;2022-10-16T12:11:44;0.77;;;0.75;;
21661;SDS011;10992;48.170;8.596;2022-10-16T12:16:51;3.33;;;0.90;;
21661;SDS011;10992;48.170;8.596;2022-10-16T12:19:25;1.33;;;0.88;;
21661;SDS011;10992;48.170;8.596;2022-10-16T12:21:55;1.85;;;1.02;;
21661;SDS011;10992;48.170;8.596;2022-10-16T12:24:39;5.35;;;1.00;;
21661;SDS011;10992;48.170;8.596;2022-10-16T12:30:05;2.78;;;0.85;;
21661;SDS011;10992;48.170;8.596;2022-10-16T12:32:35;1.15;;;0.73;;
21661;SDS011;10992;48.170;8.596;2022-10-16T12:35:22;2.58;;;0.70;;
21661;SDS011;10992;48.170;8.596;2022-10-16T12:37:52;2.15;;;0.80;;
21661;SDS011;10992;48.170;8.596;2022-10-16T12:40:27;1.48;;;0.75;;
21661;SDS011;10992;48.170;8.596;2022-10-16T12:42:57;2.10;;;0.90;;
21661;SDS011;10992;48.170;8.596;2022-10-16T12:45:31;2.47;;;0.80;;
21661;SDS011;10992;48.170;8.596;2022-10-16T12:48:00;2.80;;;0.70;;
21661;SDS011;10992;48.170;8.596;2022-10-16T12:52:58;1.88;;;0.75;;
21661;SDS011;10992;48.170;8.596;2022-10-16T12:55:27;4.85;;;0.98;;
21661;SDS011;10992;48.170;8.596;2022-10-16T13:00:56;3.42;;;1.00;;
21661;SDS011;10992;48.170;8.596;2022-10-16T13:17:34;3.17;;;1.10;;
21661;SDS011;10992;48.170;8.596;2022-10-16T13:25:49;3.17;;;1.08;;
21661;SDS011;10992;48.170;8.596;2022-10-16T13:28:37;1.75;;;0.70;;
21661;SDS011;10992;48.170;8.596;2022-10-16T13:31:05;1.80;;;0.98;;
21661;SDS011;10992;48.170;8.596;2022-10-16T13:33:45;1.75;;;0.90;;
21661;SDS011;10992;48.170;8.596;2022-10-16T13:36:25;2.78;;;1.98;;
21661;SDS011;10992;48.170;8.596;2022-10-16T13:39:03;2.25;;;0.95;;
21661;SDS011;10992;48.170;8.596;2022-10-16T13:41:40;1.50;;;1.00;;
21661;SDS011;10992;48.170;8.596;2022-10-16T13:44:11;5.93;;;1.17;;
21661;SDS011;10992;48.170;8.596;2022-10-16T13:46:41;1.30;;;0.90;;
21661;SDS011;10992;48.170;8.596;2022-10-16T13:49:13;2.15;;;1.02;;
21661;SDS011;10992;48.170;8.596;2022-10-16T13:51:41;1.77;;;0.93;;
21661;SDS011;10992;48.170;8.596;2022-10-16T13:54:19;1.95;;;1.00;;
21661;SDS011;10992;48.170;8.596;2022-10-16T13:56:46;1.33;;;0.80;;
21661;SDS011;10992;48.170;8.596;2022-10-16T13:59:34;2.15;;;0.88;;
21661;SDS011;10992;48.170;8.596;2022-10-16T14:02:15;1.92;;;0.88;;
21661;SDS011;10992;48.170;8.596;2022-10-16T14:04:48;2.40;;;0.93;;
21661;SDS011;10992;48.170;8.596;2022-10-16T14:07:19;1.67;;;0.80;;
21661;SDS011;10992;48.170;8.596;2022-10-16T14:09:51;4.20;;;0.93;;
21661;SDS011;10992;48.170;8.596;2022-10-16T14:12:20;3.42;;;1.08;;
21661;SDS011;10992;48.170;8.596;2022-10-16T14:14:53;3.30;;;1.23;;
21661;SDS011;10992;48.170;8.596;2022-10-16T14:17:22;3.22;;;1.10;;
21661;SDS011;10992;48.170;8.596;2022-10-16T14:19:56;4.32;;;0.90;;
21661;SDS011;10992;48.170;8.596;2022-10-16T14:22:30;2.40;;;0.90;;
21661;SDS011;10992;48.170;8.596;2022-10-16T14:25:01;2.92;;;1.00;;
21661;SDS011;10992;48.170;8.596;2022-10-16T14:30:51;1.98;;;1.08;;
21661;SDS011;10992;48.170;8.596;2022-10-16T14:36:03;1.50;;;0.80;;
21661;SDS011;10992;48.170;8.596;2022-10-16T14:38:31;3.75;;;0.77;;
21661;SDS011;10992;48.170;8.596;2022-10-16T14:40:59;3.80;;;1.08;;
21661;SDS011;10992;48.170;8.596;2022-10-16T14:43:34;2.30;;;0.65;;
21661;SDS011;10992;48.170;8.596;2022-10-16T14:46:06;5.28;;;0.90;;
21661;SDS011;10992;48.170;8.596;2022-10-16T14:48:59;1.33;;;0.85;;
21661;SDS011;10992;48.170;8.596;2022-10-16T14:51:36;3.38;;;0.70;;
21661;SDS011;10992;48.170;8.596;2022-10-16T14:54:04;1.75;;;1.00;;
21661;SDS011;10992;48.170;8.596;2022-10-16T14:56:35;1.75;;;0.80;;
21661;SDS011;10992;48.170;8.596;2022-10-16T15:01:54;1.50;;;0.90;;
21661;SDS011;10992;48.170;8.596;2022-10-16T15:04:22;1.35;;;1.00;;
21661;SDS011;10992;48.170;8.596;2022-10-16T15:06:48;2.35;;;0.82;;
21661;SDS011;10992;48.170;8.596;2022-10-16T15:09:16;3.00;;;0.88;;
21661;SDS011;10992;48.170;8.596;2022-10-16T15:11:42;1.80;;;0.85;;
21661;SDS011;10992;48.170;8.596;2022-10-16T15:14:11;2.97;;;1.00;;
21661;SDS011;10992;48.170;8.596;2022-10-16T15:16:44;2.00;;;0.80;;
21661;SDS011;10992;48.170;8.596;2022-10-16T15:19:12;2.42;;;0.95;;
21661;SDS011;10992;48.170;8.596;2022-10-16T15:21:39;1.20;;;1.00;;
21661;SDS011;10992;48.170;8.596;2022-10-16T15:24:08;1.35;;;0.70;;
21661;SDS011;10992;48.170;8.596;2022-10-16T15:26:43;1.45;;;0.93;;
21661;SDS011;10992;48.170;8.596;2022-10-16T15:29:12;2.95;;;0.90;;
21661;SDS011;10992;48.170;8.596;2022-10-16T15:31:39;2.30;;;0.85;;
21661;SDS011;10992;48.170;8.596;2022-10-16T15:34:09;4.53;;;1.40;;
21661;SDS011;10992;48.170;8.596;2022-10-16T15:36:37;1.70;;;1.40;;
21661;SDS011;10992;48.170;8.596;2022-10-16T15:39:05;3.15;;;1.48;;
21661;SDS011;10992;48.170;8.596;2022-10-16T15:41:38;3.13;;;1.63;;
21661;SDS011;10992;48.170;8.596;2022-10-16T15:44:06;7.25;;;1.73;;
21661;SDS011;10992;48.170;8.596;2022-10-16T15:46:34;1.35;;;1.20;;
21661;SDS011;10992;48.170;8.596;2022-10-16T15:49:02;3.00;;;1.55;;
21661;SDS011;10992;48.170;8.596;2022-10-16T15:51:29;2.50;;;1.10;;
21661;SDS011;10992;48.170;8.596;2022-10-16T15:53:59;2.03;;;1.30;;
21661;SDS011;10992;48.170;8.596;2022-10-16T15:56:28;2.72;;;1.20;;
21661;SDS011;10992;48.170;8.596;2022-10-16T15:59:01;4.05;;;1.10;;
21661;SDS011;10992;48.170;8.596;2022-10-16T16:01:31;2.97;;;1.20;;
21661;SDS011;10992;48.170;8.596;2022-10-16T16:03:59;3.95;;;1.23;;
21661;SDS011;10992;48.170;8.596;2022-10-16T16:06:26;4.88;;;1.50;;
21661;SDS011;10992;48.170;8.596;2022-10-16T16:08:53;3.20;;;1.67;;
21661;SDS011;10992;48.170;8.596;2022-10-16T16:11:20;2.58;;;1.85;;
21661;SDS011;10992;48.170;8.596;2022-10-16T16:13:48;8.38;;;1.90;;
21661;SDS011;10992;48.170;8.596;2022-10-16T16:16:16;3.08;;;2.20;;
21661;SDS011;10992;48.170;8.596;2022-10-16T16:18:44;2.85;;;2.50;;
21661;SDS011;10992;48.170;8.596;2022-10-16T16:21:11;2.33;;;1.80;;
21661;SDS011;10992;48.170;8.596;2022-10-16T16:23:39;6.05;;;2.63;;
21661;SDS011;10992;48.170;8.596;2022-10-16T16:26:08;5.18;;;2.50;;
21661;SDS011;10992;48.170;8.596;2022-10-16T16:28:52;8.95;;;6.57;;
21661;SDS011;10992;48.170;8.596;2022-10-16T16:31:20;4.15;;;2.80;;
21661;SDS011;10992;48.170;8.596;2022-10-16T16:33:51;2.85;;;1.90;;
21661;SDS011;10992;48.170;8.596;2022-10-16T16:36:18;2.10;;;1.50;;
21661;SDS011;10992;48.170;8.596;2022-10-16T16:38:45;2.50;;;1.90;;
21661;SDS011;10992;48.170;8.596;2022-10-16T16:41:16;5.40;;;1.88;;
21661;SDS011;10992;48.170;8.596;2022-10-16T16:43:48;2.25;;;1.50;;
21661;SDS011;10992;48.170;8.596;2022-10-16T16:46:17;2.78;;;1.80;;
21661;SDS011;10992;48.170;8.596;2022-10-16T16:48:45;1.55;;;0.93;;
21661;SDS011;10992;48.170;8.596;2022-10-16T16:51:14;2.10;;;0.90;;
21661;SDS011;10992;48.170;8.596;2022-10-16T16:53:42;2.35;;;0.95;;
21661;SDS011;10992;48.170;8.596;2022-10-16T16:56:10;2.85;;;0.80;;
21661;SDS011;10992;48.170;8.596;2022-10-16T16:58:37;2.17;;;1.05;;
21661;SDS011;10992;48.170;8.596;2022-10-16T17:01:05;2.58;;;1.38;;
21661;SDS011;10992;48.170;8.596;2022-10-16T17:03:52;5.10;;;2.55;;
21661;SDS011;10992;48.170;8.596;2022-10-16T17:06:22;6.35;;;3.63;;
21661;SDS011;10992;48.170;8.596;2022-10-16T17:08:51;2.72;;;1.83;;
21661;SDS011;10992;48.170;8.596;2022-10-16T17:11:20;3.45;;;1.40;;
21661;SDS011;10992;48.170;8.596;2022-10-16T17:13:48;1.92;;;1.35;;